createdAt,value
2018-12-08T00:00:38.732Z,97302.64
2018-12-08T00:03:08.605Z,97308.94
2018-12-08T00:05:38.354Z,97305.98
2018-12-08T00:08:08.079Z,97308.52
2018-12-08T00:10:37.712Z,97308.95
2018-12-08T00:13:07.451Z,97299.28
2018-12-08T00:15:37.105Z,97313.96
2018-12-08T00:18:06.816Z,97309.34
2018-12-08T00:20:36.422Z,97327.80
2018-12-08T00:23:06.171Z,97324.45
2018-12-08T00:25:35.811Z,97326.55
2018-12-08T00:28:05.657Z,97333.70
2018-12-08T00:30:52.101Z,97340.41
2018-12-08T00:33:21.782Z,97346.70
2018-12-08T00:35:51.479Z,97355.94
2018-12-08T00:38:21.236Z,97355.52
2018-12-08T00:40:50.961Z,97374.83
2018-12-08T00:43:20.729Z,97371.02
2018-12-08T00:45:50.450Z,97376.91
2018-12-08T00:48:20.150Z,97374.81
2018-12-08T00:50:49.795Z,97395.36
2018-12-08T00:53:19.532Z,97387.37
2018-12-08T00:55:49.413Z,97387.39
2018-12-08T00:58:19.049Z,97380.25
2018-12-08T01:00:48.883Z,97374.80
2018-12-08T01:03:18.623Z,97371.86
2018-12-08T01:05:48.457Z,97374.38
2018-12-08T01:08:18.232Z,97368.50
2018-12-08T01:10:47.872Z,97368.94
2018-12-08T01:13:17.564Z,97377.73
2018-12-08T01:15:47.251Z,97379.00
2018-12-08T01:18:16.940Z,97371.86
2018-12-08T01:20:46.624Z,97378.98
2018-12-08T01:23:16.352Z,97394.52
2018-12-08T01:25:45.979Z,97381.52
2018-12-08T01:28:15.714Z,97385.28
2018-12-08T01:30:45.468Z,97395.37
2018-12-08T01:33:15.139Z,97388.23
2018-12-08T01:35:44.856Z,97394.94
2018-12-08T01:38:14.457Z,97397.44
2018-12-08T01:40:44.533Z,97406.24
2018-12-08T01:43:14.247Z,97412.96
2018-12-08T01:45:43.959Z,97397.02
2018-12-08T01:48:13.617Z,97416.72
2018-12-08T01:50:43.324Z,97418.36
2018-12-08T01:53:12.923Z,97417.94
2018-12-08T01:55:42.647Z,97420.45
2018-12-08T01:58:12.380Z,97428.02
2018-12-08T02:00:42.148Z,97424.66
2018-12-08T02:03:11.808Z,97427.19
2018-12-08T02:05:41.528Z,97415.43
2018-12-08T02:08:11.126Z,97418.34
2018-12-08T02:10:40.846Z,97431.76
2018-12-08T02:13:10.458Z,97420.42
2018-12-08T02:15:40.186Z,97413.30
2018-12-08T02:18:09.803Z,97410.77
2018-12-08T02:20:39.484Z,97416.21
2018-12-08T02:23:09.145Z,97409.09
2018-12-08T02:25:38.862Z,97410.77
2018-12-08T02:28:09.340Z,97405.30
2018-12-08T02:30:39.256Z,97401.95
2018-12-08T02:33:08.968Z,97412.00
2018-12-08T02:35:38.618Z,97402.36
2018-12-08T02:38:08.322Z,97406.98
2018-12-08T02:40:37.933Z,97403.22
2018-12-08T02:43:07.639Z,97417.04
2018-12-08T02:45:37.354Z,97407.81
2018-12-08T02:48:07.033Z,97424.98
2018-12-08T02:50:36.765Z,97427.53
2018-12-08T02:53:06.408Z,97425.43
2018-12-08T02:55:36.052Z,97414.55
2018-12-08T02:58:05.733Z,97430.05
2018-12-08T03:00:35.335Z,97439.75
2018-12-08T03:03:05.064Z,97452.19
2018-12-08T03:05:34.657Z,97473.48
2018-12-08T03:08:04.376Z,97502.80
2018-12-08T03:10:34.057Z,97525.78
2018-12-08T03:13:03.822Z,97541.22
2018-12-08T03:15:33.422Z,97552.52
2018-12-08T03:18:03.183Z,97559.20
2018-12-08T03:20:32.961Z,97577.61
2018-12-08T03:23:02.629Z,97594.86
2018-12-08T03:25:32.419Z,97603.66
2018-12-08T03:28:02.245Z,97602.84
2018-12-08T03:30:31.852Z,97612.42
2018-12-08T03:33:01.710Z,97599.92
2018-12-08T03:35:31.588Z,97600.72
2018-12-08T03:38:01.308Z,97596.15
2018-12-08T03:40:30.939Z,97584.95
2018-12-08T03:43:00.594Z,97586.20
2018-12-08T03:45:30.211Z,97576.58
2018-12-08T03:48:00.029Z,97598.80
2018-12-08T03:50:29.624Z,97575.45
2018-12-08T03:52:59.363Z,97564.95
2018-12-08T03:55:29.095Z,97576.11
2018-12-08T03:57:58.803Z,97565.86
2018-12-08T04:00:28.610Z,97578.89
2018-12-08T04:02:58.269Z,97570.84
2018-12-08T04:05:27.889Z,97564.19
2018-12-08T04:07:57.593Z,97558.34
2018-12-08T04:10:27.347Z,97588.06
2018-12-08T04:12:57.033Z,97552.94
2018-12-08T04:15:26.804Z,97543.39
2018-12-08T04:17:56.540Z,97535.91
2018-12-08T04:20:26.153Z,97521.61
2018-12-08T04:22:55.858Z,97533.45
2018-12-08T04:25:25.529Z,97525.46
2018-12-08T04:27:55.413Z,97522.95
2018-12-08T04:30:25.098Z,97519.61
2018-12-08T04:32:54.800Z,97518.38
2018-12-08T04:35:24.504Z,97524.22
2018-12-08T04:37:54.158Z,97523.29
2018-12-08T04:40:23.820Z,97529.50
2018-12-08T04:42:53.465Z,97542.02
2018-12-08T04:45:23.192Z,97539.91
2018-12-08T04:47:52.833Z,97550.80
2018-12-08T04:50:22.853Z,97550.34
2018-12-08T04:52:52.462Z,97567.86
2018-12-08T04:55:22.167Z,97580.39
2018-12-08T04:57:51.738Z,97608.77
2018-12-08T05:00:21.391Z,97605.89
2018-12-08T05:02:51.005Z,97629.37
2018-12-08T05:05:20.670Z,97626.44
2018-12-08T05:07:50.264Z,97601.39
2018-12-08T05:10:19.859Z,97599.22
2018-12-08T05:12:49.447Z,97586.29
2018-12-08T05:15:19.065Z,97587.88
2018-12-08T05:17:48.621Z,97584.95
2018-12-08T05:20:18.318Z,97586.57
2018-12-08T05:22:47.998Z,97580.62
2018-12-08T05:25:17.704Z,97577.64
2018-12-08T05:27:47.292Z,97591.96
2018-12-08T05:30:16.973Z,97583.17
2018-12-08T05:32:46.726Z,97579.79
2018-12-08T05:35:16.387Z,97576.44
2018-12-08T05:37:46.092Z,97576.02
2018-12-08T05:40:15.697Z,97572.25
2018-12-08T05:42:45.426Z,97561.78
2018-12-08T05:45:15.042Z,97567.23
2018-12-08T05:47:44.716Z,97566.81
2018-12-08T05:50:14.432Z,97566.00
2018-12-08T05:52:44.184Z,97570.19
2018-12-08T05:55:13.945Z,97576.05
2018-12-08T05:57:43.722Z,97572.70
2018-12-08T06:00:13.395Z,97563.44
2018-12-08T06:02:43.081Z,97574.68
2018-12-08T06:05:12.840Z,97571.45
2018-12-08T06:07:42.614Z,97571.45
2018-12-08T06:10:12.246Z,97569.37
2018-12-08T06:12:42.055Z,97575.19
2018-12-08T06:15:11.664Z,97560.56
2018-12-08T06:17:41.434Z,97575.21
2018-12-08T06:20:11.055Z,97591.03
2018-12-08T06:22:40.785Z,97594.80
2018-12-08T06:25:20.071Z,97596.48
2018-12-08T06:28:08.642Z,97598.94
2018-12-08T06:30:38.539Z,97605.98
2018-12-08T06:33:08.175Z,97622.31
2018-12-08T06:35:37.867Z,97625.27
2018-12-08T06:38:07.513Z,97626.98
2018-12-08T06:40:37.223Z,97626.20
2018-12-08T06:43:06.992Z,97630.36
2018-12-08T06:45:36.625Z,97635.03
2018-12-08T06:48:06.397Z,97627.07
2018-12-08T06:50:36.074Z,97632.55
2018-12-08T06:53:05.691Z,97626.62
2018-12-08T06:55:35.347Z,97629.91
2018-12-08T06:58:04.976Z,97620.55
2018-12-08T07:00:34.681Z,97651.09
2018-12-08T07:03:04.313Z,97648.13
2018-12-08T07:05:34.095Z,97666.09
2018-12-08T07:08:03.931Z,97653.50
2018-12-08T07:10:33.709Z,97686.11
2018-12-08T07:13:03.489Z,97697.36
2018-12-08T07:15:33.269Z,97688.85
2018-12-08T07:18:02.872Z,97680.90
2018-12-08T07:20:32.567Z,97716.42
2018-12-08T07:23:02.168Z,97725.58
2018-12-08T07:25:32.017Z,97741.10
2018-12-08T07:28:01.650Z,97742.28
2018-12-08T07:30:31.406Z,97755.91
2018-12-08T07:33:01.030Z,97768.42
2018-12-08T07:35:30.716Z,97791.02
2018-12-08T07:38:00.428Z,97785.66
2018-12-08T07:40:30.092Z,97795.61
2018-12-08T07:42:59.817Z,97794.11
2018-12-08T07:45:29.446Z,97801.59
2018-12-08T07:47:59.156Z,97782.27
2018-12-08T07:50:28.776Z,97802.40
2018-12-08T07:52:58.685Z,97799.38
2018-12-08T07:55:28.309Z,97807.24
2018-12-08T07:57:58.160Z,97801.84
2018-12-08T08:00:27.978Z,97808.59
2018-12-08T08:02:57.619Z,97817.42
2018-12-08T08:05:27.312Z,97824.91
2018-12-08T08:07:57.120Z,97802.73
2018-12-08T08:10:26.795Z,97804.48
2018-12-08T08:12:56.490Z,97786.92
2018-12-08T08:15:26.126Z,97783.23
2018-12-08T08:17:55.802Z,97754.05
2018-12-08T08:20:25.472Z,97783.35
2018-12-08T08:22:55.203Z,97771.71
2018-12-08T08:25:24.833Z,97728.17
2018-12-08T08:27:54.496Z,97760.86
2018-12-08T08:30:24.099Z,97721.09
2018-12-08T08:32:53.828Z,97722.77
2018-12-08T08:35:23.593Z,97723.64
2018-12-08T08:37:53.242Z,97734.07
2018-12-08T08:40:23.150Z,97726.12
2018-12-08T08:42:52.759Z,97715.16
2018-12-08T08:45:22.551Z,97728.21
2018-12-08T08:47:52.199Z,97708.96
2018-12-08T08:50:21.864Z,97712.34
2018-12-08T08:52:51.450Z,97681.44
2018-12-08T08:55:21.082Z,97681.85
2018-12-08T08:57:50.663Z,97678.95
2018-12-08T09:00:20.297Z,97675.61
2018-12-08T09:02:49.882Z,97634.19
2018-12-08T09:05:19.586Z,97667.75
2018-12-08T09:07:49.194Z,97624.20
2018-12-08T09:10:18.901Z,97643.05
2018-12-08T09:12:48.670Z,97609.09
2018-12-08T09:15:18.322Z,97621.72
2018-12-08T09:17:47.857Z,97622.91
2018-12-08T09:20:17.521Z,97620.38
2018-12-08T09:22:47.098Z,97622.83
2018-12-08T09:25:16.759Z,97628.72
2018-12-08T09:27:46.356Z,97625.75
2018-12-08T09:30:16.185Z,97645.46
2018-12-08T09:32:45.761Z,97629.02
2018-12-08T09:35:15.738Z,97622.37
2018-12-08T09:37:45.341Z,97637.38
2018-12-08T09:40:15.114Z,97657.92
2018-12-08T09:42:44.721Z,97631.23
2018-12-08T09:45:14.365Z,97639.78
2018-12-08T09:47:43.958Z,97629.82
2018-12-08T09:50:13.794Z,97635.23
2018-12-08T09:52:43.688Z,97625.20
2018-12-08T09:55:13.584Z,97638.28
2018-12-08T09:57:43.206Z,97632.30
2018-12-08T10:00:12.935Z,97605.05
2018-12-08T10:02:42.558Z,97615.47
2018-12-08T10:05:12.370Z,97622.41
2018-12-08T10:07:42.486Z,97601.97
2018-12-08T10:10:12.177Z,97622.05
2018-12-08T10:12:41.794Z,97641.75
2018-12-08T10:15:11.508Z,97642.20
2018-12-08T10:17:41.236Z,97648.90
2018-12-08T10:20:11.064Z,97630.45
2018-12-08T10:22:40.786Z,97629.78
2018-12-08T10:25:10.442Z,97652.00
2018-12-08T10:27:40.362Z,97622.95
2018-12-08T10:30:11.174Z,97630.00
2018-12-08T10:32:40.804Z,97655.25
2018-12-08T10:35:12.790Z,97666.13
2018-12-08T10:37:42.554Z,97666.58
2018-12-08T10:40:12.714Z,97677.70
2018-12-08T10:42:42.343Z,97695.16
2018-12-08T10:45:12.007Z,97689.34
2018-12-08T10:47:41.612Z,97719.73
2018-12-08T10:50:12.305Z,97720.52
2018-12-08T10:52:41.998Z,97735.20
2018-12-08T10:55:11.653Z,97746.75
2018-12-08T10:57:41.271Z,97770.22
2018-12-08T11:00:15.184Z,97773.67
2018-12-08T11:02:54.188Z,97823.75
2018-12-08T11:05:23.817Z,97887.36
2018-12-08T11:07:53.537Z,97983.13
2018-12-08T11:10:23.164Z,98078.55
2018-12-08T11:12:53.264Z,98183.25
2018-12-08T11:15:22.879Z,98231.59
2018-12-08T11:17:52.557Z,98303.70
2018-12-08T11:20:22.370Z,98328.45
2018-12-08T11:22:52.091Z,98447.60
2018-12-08T11:25:21.720Z,98762.30
2018-12-08T11:27:51.495Z,98834.45
2018-12-08T11:30:21.152Z,98901.85
2018-12-08T11:32:50.801Z,98996.61
2018-12-08T11:35:20.430Z,99059.86
2018-12-08T11:37:50.039Z,99083.01
2018-12-08T11:40:20.148Z,99040.19
2018-12-08T11:42:49.762Z,98993.16
2018-12-08T11:45:19.457Z,98996.72
2018-12-08T11:47:49.112Z,98984.02
2018-12-08T11:50:18.843Z,98930.70
2018-12-08T11:52:48.433Z,98909.43
2018-12-08T11:55:18.099Z,98857.82
2018-12-08T11:57:47.991Z,98823.16
2018-12-08T12:00:17.624Z,98778.68
2018-12-08T12:02:47.229Z,98715.92
2018-12-08T12:05:16.975Z,98678.87
2018-12-08T12:07:46.517Z,98636.00
2018-12-08T12:10:16.245Z,98602.23
2018-12-08T12:12:45.805Z,98558.36
2018-12-08T12:15:15.445Z,98501.41
2018-12-08T12:17:45.023Z,98441.60
2018-12-08T12:20:14.682Z,98398.91
2018-12-08T12:22:44.271Z,98347.36
2018-12-08T12:25:14.439Z,98307.22
2018-12-08T12:27:44.657Z,98259.00
2018-12-08T12:30:14.338Z,98230.88
2018-12-08T12:32:43.957Z,98178.48
2018-12-08T12:35:13.642Z,98162.36
2018-12-08T12:37:43.303Z,98140.88
2018-12-08T12:40:12.926Z,98140.47
2018-12-08T12:42:42.533Z,98131.67
2018-12-08T12:45:12.137Z,98110.63
2018-12-08T12:47:41.745Z,98109.41
2018-12-08T12:50:11.351Z,98151.41
2018-12-08T12:52:40.940Z,98738.30
2018-12-08T12:55:10.525Z,98965.16
2018-12-08T12:57:40.197Z,99718.81
2018-12-08T13:00:13.519Z,99900.13
2018-12-08T13:02:43.392Z,99852.55
2018-12-08T13:05:13.027Z,99805.27
2018-12-08T13:07:42.868Z,99766.19
2018-12-08T13:10:12.545Z,99719.47
2018-12-08T13:12:42.154Z,99677.95
2018-12-08T13:15:11.910Z,99602.19
2018-12-08T13:17:41.592Z,99553.77
2018-12-08T13:20:11.296Z,99483.20
2018-12-08T13:22:41.009Z,99390.55
2018-12-08T13:25:24.649Z,99311.48
2018-12-08T13:27:54.614Z,99227.68
2018-12-08T13:30:24.256Z,99125.77
2018-12-08T13:32:53.880Z,99042.30
2018-12-08T13:35:57.649Z,98927.95
2018-12-08T13:38:27.852Z,98835.88
2018-12-08T13:40:57.692Z,98722.12
2018-12-08T13:43:27.320Z,98660.49
2018-12-08T13:45:56.957Z,98600.30
2018-12-08T13:48:27.617Z,98525.88
2018-12-08T13:50:57.574Z,98482.69
2018-12-08T13:53:27.282Z,98432.70
2018-12-08T13:55:56.911Z,98374.33
2018-12-08T13:58:26.881Z,98343.31
2018-12-08T14:00:56.508Z,98288.59
2018-12-08T14:03:26.162Z,98323.74
2018-12-08T14:05:55.931Z,98279.86
2018-12-08T14:08:25.949Z,98259.91
2018-12-08T14:10:55.588Z,98252.78
2018-12-08T14:13:25.420Z,98241.89
2018-12-08T14:15:55.046Z,98211.41
2018-12-08T14:18:24.670Z,98177.59
2018-12-08T14:20:54.375Z,98170.97
2018-12-08T14:23:24.183Z,98157.98
2018-12-08T14:25:53.908Z,98135.14
2018-12-08T14:28:23.651Z,98113.76
2018-12-08T14:30:53.329Z,98081.51
2018-12-08T14:33:22.954Z,98045.88
2018-12-08T14:35:52.639Z,98031.66
2018-12-08T14:38:22.398Z,98033.79
2018-12-08T14:40:51.991Z,98003.14
2018-12-08T14:43:21.712Z,97992.48
2018-12-08T14:45:51.310Z,97982.64
2018-12-08T14:48:21.036Z,97977.08
2018-12-08T14:50:50.639Z,98000.09
2018-12-08T14:53:20.304Z,97995.09
2018-12-08T14:55:49.923Z,98005.99
2018-12-08T14:58:19.626Z,98008.89
2018-12-08T15:00:49.232Z,98013.45
2018-12-08T15:03:18.961Z,98008.80
2018-12-08T15:05:48.633Z,98011.35
2018-12-08T15:08:18.251Z,98019.36
2018-12-08T15:10:48.104Z,98018.48
2018-12-08T15:13:17.799Z,98006.70
2018-12-08T15:15:47.463Z,98004.98
2018-12-08T15:18:17.092Z,98019.27
2018-12-08T15:20:46.777Z,97999.96
2018-12-08T15:23:16.393Z,98003.77
2018-12-08T15:25:46.103Z,98001.68
2018-12-08T15:28:15.739Z,97979.97
2018-12-08T15:30:45.432Z,97989.11
2018-12-08T15:33:15.200Z,97981.18
2018-12-08T15:35:44.827Z,97977.11
2018-12-08T15:38:14.463Z,97977.95
2018-12-08T15:40:44.191Z,97969.91
2018-12-08T15:43:13.811Z,97970.30
2018-12-08T15:45:43.480Z,97971.21
2018-12-08T15:48:13.105Z,97965.84
2018-12-08T15:50:42.769Z,97969.95
2018-12-08T15:53:12.359Z,97953.72
2018-12-08T15:55:42.004Z,97949.98
2018-12-08T15:58:11.751Z,97957.72
2018-12-08T16:00:41.401Z,97929.56
2018-12-08T16:03:11.106Z,97934.67
2018-12-08T16:05:40.706Z,97989.48
2018-12-08T16:08:10.280Z,97969.33
2018-12-08T16:10:39.876Z,97993.62
2018-12-08T16:13:10.631Z,97996.98
2018-12-08T16:15:40.461Z,98014.58
2018-12-08T16:18:10.030Z,98021.66
2018-12-08T16:20:39.687Z,98049.69
2018-12-08T16:23:09.291Z,98062.72
2018-12-08T16:25:38.961Z,98081.56
2018-12-08T16:28:08.598Z,98076.59
2018-12-08T16:30:38.165Z,98078.68
2018-12-08T16:33:07.825Z,98092.65
2018-12-08T16:35:37.423Z,98091.86
2018-12-08T16:38:06.992Z,98100.61
2018-12-08T16:40:36.613Z,98099.69
2018-12-08T16:43:06.189Z,98109.88
2018-12-08T16:45:35.871Z,98119.14
2018-12-08T16:48:05.479Z,98119.56
2018-12-08T16:50:35.175Z,98127.11
2018-12-08T16:53:04.729Z,98118.86
2018-12-08T16:55:34.349Z,98116.26
2018-12-08T16:58:04.047Z,98104.38
2018-12-08T17:00:33.699Z,98099.03
2018-12-08T17:03:03.348Z,98105.27
2018-12-08T17:05:33.028Z,98091.91
2018-12-08T17:08:02.721Z,98114.11
2018-12-08T17:10:32.365Z,98113.37
2018-12-08T17:13:01.976Z,98097.45
2018-12-08T17:15:31.661Z,98092.45
2018-12-08T17:18:01.257Z,98091.66
2018-12-08T17:20:30.885Z,98081.61
2018-12-08T17:23:00.567Z,98082.53
2018-12-08T17:25:30.241Z,98077.16
2018-12-08T17:27:59.831Z,98069.19
2018-12-08T17:30:29.540Z,98060.93
2018-12-08T17:32:59.304Z,98058.30
2018-12-08T17:35:28.877Z,98044.66
2018-12-08T17:37:58.470Z,98040.45
2018-12-08T17:40:28.050Z,98035.66
2018-12-08T17:42:57.775Z,98007.10
2018-12-08T17:45:27.471Z,97998.26
2018-12-08T17:47:57.281Z,97975.20
2018-12-08T17:50:26.884Z,97958.80
2018-12-08T17:52:56.607Z,97942.97
2018-12-08T17:55:26.239Z,97930.00
2018-12-08T17:57:55.948Z,97920.67
2018-12-08T18:00:25.597Z,97897.16
2018-12-08T18:02:55.288Z,97884.45
2018-12-08T18:05:25.063Z,97875.97
2018-12-08T18:07:54.894Z,97870.58
2018-12-08T18:10:24.540Z,97878.55
2018-12-08T18:12:54.245Z,97864.23
2018-12-08T18:15:24.000Z,97855.49
2018-12-08T18:17:53.700Z,97865.17
2018-12-08T18:20:23.355Z,97856.75
2018-12-08T18:22:53.076Z,97862.20
2018-12-08T18:25:22.769Z,97852.56
2018-12-08T18:27:52.445Z,97837.05
2018-12-08T18:30:22.066Z,97856.75
2018-12-08T18:32:51.787Z,97850.91
2018-12-08T18:35:21.440Z,97858.10
2018-12-08T18:37:51.337Z,97833.62
2018-12-08T18:40:20.977Z,97843.39
2018-12-08T18:42:50.715Z,97837.08
2018-12-08T18:45:20.429Z,97866.58
2018-12-08T18:47:50.119Z,97832.08
2018-12-08T18:50:19.784Z,97813.27
2018-12-08T18:52:49.444Z,97819.50
2018-12-08T18:55:19.073Z,97818.38
2018-12-08T18:57:48.757Z,97806.67
2018-12-08T19:00:18.390Z,97791.23
2018-12-08T19:02:48.059Z,97779.46
2018-12-08T19:05:17.644Z,97765.62
2018-12-08T19:07:47.264Z,97753.52
2018-12-08T19:10:16.906Z,97707.02
2018-12-08T19:12:46.605Z,97678.52
2018-12-08T19:15:16.253Z,97650.80
2018-12-08T19:17:45.980Z,97636.13
2018-12-08T19:20:15.613Z,97613.47
2018-12-08T19:22:45.365Z,97599.64
2018-12-08T19:25:15.005Z,97579.08
2018-12-08T19:27:44.648Z,97556.41
2018-12-08T19:30:14.399Z,97561.91
2018-12-08T19:32:44.132Z,97548.00
2018-12-08T19:35:13.780Z,97531.70
2018-12-08T19:37:43.485Z,97514.45
2018-12-08T19:40:13.226Z,97515.29
2018-12-08T19:42:42.970Z,97507.73
2018-12-08T19:45:12.781Z,97497.64
2018-12-08T19:47:42.405Z,97487.16
2018-12-08T19:50:12.156Z,97534.47
2018-12-08T19:52:41.762Z,97510.14
2018-12-08T19:55:11.459Z,97516.82
2018-12-08T19:57:41.097Z,97504.23
2018-12-08T20:00:12.724Z,97507.56
2018-12-08T20:02:42.433Z,97524.80
2018-12-08T20:05:12.221Z,97502.95
2018-12-08T20:07:41.946Z,97504.69
2018-12-08T20:10:11.631Z,97507.62
2018-12-08T20:12:41.368Z,97660.64
2018-12-08T20:15:13.361Z,97636.28
2018-12-08T20:17:42.961Z,97690.17
2018-12-08T20:20:12.642Z,97721.52
2018-12-08T20:22:42.287Z,97732.39
2018-12-08T20:25:11.980Z,97726.05
2018-12-08T20:27:41.592Z,97756.69
2018-12-08T20:30:11.201Z,97720.69
2018-12-08T20:32:40.827Z,97715.98
2018-12-08T20:35:10.486Z,97695.42
2018-12-08T20:37:40.116Z,97697.95
2018-12-08T20:40:09.776Z,97704.27
2018-12-08T20:42:39.409Z,97707.18
2018-12-08T20:45:09.047Z,97694.60
2018-12-08T20:47:38.730Z,97731.01
2018-12-08T20:50:09.302Z,98808.97
2018-12-08T20:52:38.972Z,99426.02
2018-12-08T20:55:08.605Z,99750.70
2018-12-08T20:57:38.262Z,99960.56
2018-12-08T21:00:08.211Z,100036.39
2018-12-08T21:02:37.957Z,100125.28
2018-12-08T21:05:07.608Z,100189.48
2018-12-08T21:07:37.783Z,100235.57
2018-12-08T21:10:08.038Z,100283.31
2018-12-08T21:12:37.773Z,100311.25
2018-12-08T21:15:07.538Z,100342.37
2018-12-08T21:17:37.190Z,100366.39
2018-12-08T21:20:08.092Z,100351.69
2018-12-08T21:22:37.787Z,100370.08
2018-12-08T21:25:07.579Z,100357.97
2018-12-08T21:27:37.335Z,100343.02
2018-12-08T21:30:07.663Z,100382.66
2018-12-08T21:32:37.303Z,100363.88
2018-12-08T21:35:07.152Z,100370.62
2018-12-08T21:37:36.769Z,100375.20
2018-12-08T21:40:15.895Z,100379.84
2018-12-08T21:42:45.678Z,100379.37
2018-12-08T21:45:15.367Z,100374.95
2018-12-08T21:47:44.992Z,100348.41
2018-12-08T21:50:14.977Z,100333.23
2018-12-08T21:52:45.414Z,100297.67
2018-12-08T21:55:15.238Z,100272.45
2018-12-08T21:57:45.076Z,100243.61
2018-12-08T22:00:14.945Z,100181.08
2018-12-08T22:02:44.792Z,100144.86
2018-12-08T22:05:14.455Z,100142.30
2018-12-08T22:07:44.082Z,100130.32
2018-12-08T22:10:13.938Z,100099.73
2018-12-08T22:12:43.667Z,100074.90
2018-12-08T22:15:16.951Z,100012.13
2018-12-08T22:17:47.390Z,100031.84
2018-12-08T22:20:17.173Z,99997.09
2018-12-08T22:22:46.781Z,99993.81
2018-12-08T22:25:16.403Z,99953.72
2018-12-08T22:27:45.982Z,99935.30
2018-12-08T22:30:15.709Z,99876.91
2018-12-08T22:32:45.302Z,99818.73
2018-12-08T22:35:14.929Z,99730.62
2018-12-08T22:37:44.519Z,99702.00
2018-12-08T22:40:14.263Z,99657.89
2018-12-08T22:42:43.984Z,99622.97
2018-12-08T22:45:13.712Z,99593.98
2018-12-08T22:47:43.437Z,99565.19
2018-12-08T22:50:13.054Z,99543.30
2018-12-08T22:52:42.739Z,99488.27
2018-12-08T22:55:12.355Z,99411.08
2018-12-08T22:57:42.045Z,99373.67
2018-12-08T23:00:28.893Z,99341.74
2018-12-08T23:02:58.790Z,99286.59
2018-12-08T23:05:28.467Z,99213.78
2018-12-08T23:07:58.143Z,99073.43
2018-12-08T23:10:27.796Z,99229.91
2018-12-08T23:12:57.410Z,99513.12
2018-12-08T23:15:27.108Z,99617.28
2018-12-08T23:17:56.703Z,99651.82
2018-12-08T23:20:26.587Z,99706.23
2018-12-08T23:22:56.251Z,99674.82
2018-12-08T23:25:26.188Z,99645.80
2018-12-08T23:27:55.806Z,99613.66
2018-12-08T23:30:25.491Z,99563.31
2018-12-08T23:32:55.142Z,99541.08
2018-12-08T23:35:24.791Z,99533.75
2018-12-08T23:37:54.437Z,99506.30
2018-12-08T23:40:24.100Z,99498.61
2018-12-08T23:42:53.764Z,99448.19
2018-12-08T23:45:23.415Z,99454.85
2018-12-08T23:47:53.039Z,99383.25
2018-12-08T23:50:22.721Z,99402.18
2018-12-08T23:52:52.303Z,99390.09
2018-12-08T23:55:21.921Z,99373.25
2018-12-08T23:57:51.587Z,99347.05
